Time;durP1;ratioP1;P1;durP2;ratioP2;P2;SDS_P1;SDS_P2;PMS_P1;PMS_P2;Temp;Humidity;BMP_temperature;BMP_pressure;BME280_temperature;BME280_humidity;BME280_pressure;Samples;Min_cycle;Max_cycle;Signal;HPM_P1;HPM_P2
2023/12/23 00:00:19;;;;;;;11.02;1.45;;;;;;;0.95;100.00;99881.47;4886009;29;20043;-77
2023/12/23 00:03:06;;;;;;;9.80;1.50;;;;;;;0.95;100.00;99870.91;5096420;27;20385;-76
2023/12/23 00:05:31;;;;;;;7.63;1.02;;;;;;;0.99;100.00;99877.34;5040421;28;20405;-77
2023/12/23 00:07:57;;;;;;;8.43;1.88;;;;;;;0.97;100.00;99876.78;5079992;28;20048;-77
2023/12/23 00:10:25;;;;;;;7.68;1.52;;;;;;;1.01;100.00;99870.81;5080769;28;20084;-77
2023/12/23 00:12:51;;;;;;;6.97;1.60;;;;;;;1.00;100.00;99890.31;5071452;28;20082;-80
2023/12/23 00:15:17;;;;;;;8.25;1.48;;;;;;;0.99;100.00;99898.44;5089934;28;20499;-73
2023/12/23 00:17:43;;;;;;;11.15;1.30;;;;;;;1.09;100.00;99909.25;5076920;28;20630;-78
2023/12/23 00:20:08;;;;;;;6.03;1.50;;;;;;;1.05;100.00;99910.72;5073385;28;20127;-75
2023/12/23 00:22:34;;;;;;;8.65;1.10;;;;;;;1.02;100.00;99904.09;5078520;28;20903;-75
2023/12/23 00:25:01;;;;;;;7.57;1.35;;;;;;;1.00;100.00;99916.66;5086014;28;20048;-77
2023/12/23 00:27:26;;;;;;;3.85;1.50;;;;;;;0.98;100.00;99904.75;5077789;28;20036;-75
2023/12/23 00:29:52;;;;;;;6.78;1.17;;;;;;;0.96;100.00;99920.00;5046292;28;20046;-79
2023/12/23 00:32:18;;;;;;;10.80;1.33;;;;;;;0.94;100.00;99911.50;5080708;28;20028;-80
2023/12/23 00:34:43;;;;;;;10.50;1.63;;;;;;;0.91;100.00;99927.78;5089264;28;20913;-81
2023/12/23 00:37:09;;;;;;;6.53;1.20;;;;;;;0.92;100.00;99934.66;5088573;28;20036;-81
2023/12/23 00:39:35;;;;;;;8.48;1.33;;;;;;;0.87;100.00;99931.88;5091386;28;20439;-77
2023/12/23 00:42:00;;;;;;;13.90;1.90;;;;;;;0.87;100.00;99937.16;5078041;28;20444;-77
2023/12/23 00:44:26;;;;;;;10.27;1.50;;;;;;;0.87;100.00;99942.44;5087744;28;20043;-76
2023/12/23 00:46:52;;;;;;;5.20;1.20;;;;;;;0.83;100.00;99942.09;5095682;28;20105;-76
2023/12/23 00:49:18;;;;;;;13.07;2.05;;;;;;;0.78;100.00;99955.94;5101465;28;20553;-80
2023/12/23 00:51:44;;;;;;;11.07;1.67;;;;;;;0.73;100.00;99947.88;5083573;28;20523;-78
2023/12/23 00:54:10;;;;;;;6.40;1.73;;;;;;;0.74;100.00;99954.75;5089758;28;20397;-76
2023/12/23 00:56:36;;;;;;;4.63;1.10;;;;;;;0.74;100.00;99952.13;5064149;28;20063;-75
2023/12/23 00:59:02;;;;;;;11.65;1.30;;;;;;;0.75;100.00;99948.50;5090284;28;20128;-75
2023/12/23 01:01:28;;;;;;;9.50;1.23;;;;;;;0.81;100.00;99960.78;5084240;28;20077;-76
2023/12/23 01:03:53;;;;;;;8.75;1.77;;;;;;;0.83;100.00;99960.53;5084834;28;20829;-75
2023/12/23 01:06:19;;;;;;;5.50;1.20;;;;;;;0.88;100.00;99968.59;5096959;28;20036;-75
2023/12/23 01:08:44;;;;;;;8.00;0.90;;;;;;;0.87;100.00;99972.22;5094394;28;20153;-78
2023/12/23 01:11:10;;;;;;;5.30;0.95;;;;;;;0.87;100.00;99976.69;5078013;28;20028;-77
2023/12/23 01:13:37;;;;;;;8.45;1.45;;;;;;;0.86;100.00;99975.09;5086710;28;20451;-74
2023/12/23 01:16:03;;;;;;;5.45;1.50;;;;;;;0.87;100.00;99979.34;5074257;28;20071;-74
2023/12/23 01:18:28;;;;;;;4.32;1.00;;;;;;;0.82;100.00;99970.28;5064150;28;20093;-74
2023/12/23 01:20:54;;;;;;;6.55;1.38;;;;;;;0.80;100.00;99968.88;5068738;28;20044;-73
2023/12/23 01:23:22;;;;;;;6.70;1.15;;;;;;;0.86;100.00;99977.72;5079142;28;20118;-75
2023/12/23 01:25:49;;;;;;;6.28;1.15;;;;;;;0.88;100.00;99976.50;5040504;28;20424;-77
2023/12/23 01:28:15;;;;;;;;;;;;;;;0.90;100.00;99978.91;5068177;28;20039;-75
2023/12/23 01:30:42;;;;;;;4.38;0.90;;;;;;;0.87;100.00;99979.34;5082246;28;19912;-76
2023/12/23 01:33:07;;;;;;;13.40;1.30;;;;;;;0.88;100.00;99983.56;5079673;28;20038;-75
2023/12/23 01:35:33;;;;;;;3.80;1.05;;;;;;;0.87;100.00;99979.34;5065588;28;20063;-75
2023/12/23 01:37:59;;;;;;;10.27;1.58;;;;;;;0.88;100.00;99987.03;5064283;28;20036;-79
2023/12/23 01:40:26;;;;;;;11.48;1.30;;;;;;;0.97;100.00;99995.44;5082540;28;20035;-80
2023/12/23 01:42:55;;;;;;;6.40;1.30;;;;;;;1.04;100.00;99991.66;5055314;28;20036;-74
2023/12/23 01:45:23;;;;;;;7.07;1.33;;;;;;;1.12;100.00;99993.19;5083609;28;20115;-78
2023/12/23 01:47:50;;;;;;;9.00;1.25;;;;;;;1.18;100.00;99996.75;5084330;28;20139;-76
2023/12/23 01:50:21;;;;;;;8.98;1.15;;;;;;;1.20;100.00;99995.47;5089320;28;20036;-77
2023/12/23 01:52:48;;;;;;;8.40;1.40;;;;;;;1.26;100.00;99994.59;5045668;28;20505;-77
2023/12/23 01:55:14;;;;;;;7.00;1.40;;;;;;;1.30;100.00;99987.03;5066319;28;20516;-77
2023/12/23 01:57:42;;;;;;;6.88;0.90;;;;;;;1.31;100.00;99988.63;5064917;28;20100;-80
2023/12/23 02:00:09;;;;;;;10.05;1.20;;;;;;;1.29;100.00;99994.16;5072747;28;20486;-82
2023/12/23 02:02:40;;;;;;;8.05;1.13;;;;;;;1.30;100.00;99993.09;5052677;28;20032;-80
2023/12/23 02:05:09;;;;;;;7.95;1.30;;;;;;;1.29;100.00;99988.06;5061299;28;20494;-77
2023/12/23 02:07:35;;;;;;;14.27;1.65;;;;;;;1.29;100.00;99985.44;5083100;28;20548;-77
2023/12/23 02:10:03;;;;;;;8.93;1.63;;;;;;;1.28;100.00;99975.88;5082398;28;20044;-75
2023/12/23 02:12:36;;;;;;;6.97;1.20;;;;;;;1.33;100.00;99973.38;5068819;28;20080;-79
2023/12/23 02:15:08;;;;;;;13.57;1.80;;;;;;;1.39;100.00;99979.59;5068016;28;20032;-77
2023/12/23 02:17:35;;;;;;;8.70;1.25;;;;;;;1.43;100.00;99978.09;5084976;28;20043;-79
2023/12/23 02:20:00;;;;;;;7.03;1.55;;;;;;;1.45;100.00;99976.03;5051040;28;20040;-77
2023/12/23 02:22:26;;;;;;;7.72;1.05;;;;;;;1.48;100.00;99983.47;5087657;28;20036;-78
2023/12/23 02:24:53;;;;;;;10.00;1.15;;;;;;;1.54;100.00;99983.38;5068628;28;20178;-76
2023/12/23 02:27:25;;;;;;;15.82;1.75;;;;;;;1.56;100.00;99980.53;5067707;28;20036;-77
2023/12/23 02:29:52;;;;;;;20.13;1.88;;;;;;;1.62;100.00;99984.88;5094058;28;20122;-80
2023/12/23 02:32:19;;;;;;;8.18;1.20;;;;;;;1.64;100.00;99988.09;5063525;28;20493;-78
2023/12/23 02:34:46;;;;;;;7.45;1.20;;;;;;;1.67;100.00;99979.72;5050063;28;20032;-78
2023/12/23 02:37:11;;;;;;;;;;;;;;;1.66;100.00;99985.22;5059752;28;20032;-75
2023/12/23 02:39:36;;;;;;;11.50;1.30;;;;;;;1.68;100.00;99986.59;5066904;28;19922;-80
2023/12/23 02:42:02;;;;;;;11.35;1.80;;;;;;;1.74;100.00;99977.75;5085082;28;20048;-81
2023/12/23 02:44:28;;;;;;;13.23;1.45;;;;;;;1.79;100.00;99977.06;5072163;28;20147;-81
2023/12/23 02:46:53;;;;;;;12.20;1.83;;;;;;;1.82;100.00;99981.88;5047158;28;20111;-80
2023/12/23 02:49:23;;;;;;;11.50;1.60;;;;;;;1.88;100.00;99978.31;5071442;28;20063;-78
2023/12/23 02:51:48;;;;;;;9.25;1.30;;;;;;;1.95;100.00;99978.19;5057571;28;20481;-78
2023/12/23 02:54:14;;;;;;;13.55;1.92;;;;;;;2.01;100.00;99972.00;5067381;28;20144;-75
2023/12/23 02:56:40;;;;;;;10.90;1.13;;;;;;;2.10;100.00;99974.06;5044057;28;20131;-74
2023/12/23 02:59:06;;;;;;;10.38;2.15;;;;;;;2.17;100.00;99977.38;5055744;23;20122;-72
2023/12/23 03:01:36;;;;;;;8.40;1.08;;;;;;;2.21;100.00;99979.56;5056805;28;20029;-71
2023/12/23 03:04:02;;;;;;;8.88;1.88;;;;;;;2.22;100.00;99981.16;5050335;28;20033;-72
2023/12/23 03:06:27;;;;;;;6.10;1.67;;;;;;;2.23;100.00;99983.56;5035669;28;20124;-72
2023/12/23 03:08:53;;;;;;;7.60;0.93;;;;;;;2.27;100.00;99981.25;5054012;28;20044;-72
2023/12/23 03:11:19;;;;;;;8.60;1.05;;;;;;;2.28;100.00;99974.94;5055593;28;20186;-72
2023/12/23 03:13:45;;;;;;;5.85;1.67;;;;;;;2.32;100.00;99981.38;5056361;28;20494;-71
2023/12/23 03:16:18;;;;;;;9.23;2.00;;;;;;;2.32;100.00;99990.09;5021845;28;20079;-69
2023/12/23 03:18:45;;;;;;;5.15;0.98;;;;;;;2.34;100.00;99998.59;5036132;28;20124;-70
2023/12/23 03:21:11;;;;;;;7.35;1.48;;;;;;;2.36;100.00;99987.78;5053427;28;20043;-71
2023/12/23 03:23:38;;;;;;;9.18;1.17;;;;;;;2.37;100.00;99990.22;5046778;28;20116;-71
2023/12/23 03:26:07;;;;;;;8.98;1.92;;;;;;;2.40;100.00;99987.09;5035148;28;20044;-71
2023/12/23 03:28:33;;;;;;;8.77;1.40;;;;;;;2.43;100.00;99994.53;5037925;28;20079;-71
2023/12/23 03:30:59;;;;;;;9.18;1.63;;;;;;;2.42;100.00;99992.94;5043986;28;20071;-71
2023/12/23 03:33:28;;;;;;;5.25;1.10;;;;;;;2.43;100.00;99994.53;5033402;28;20563;-72
2023/12/23 03:35:57;;;;;;;7.70;1.08;;;;;;;2.43;100.00;99999.81;5048599;28;20036;-71
2023/12/23 03:38:23;;;;;;;4.45;1.10;;;;;;;2.43;100.00;99994.53;5048587;28;20101;-71
2023/12/23 03:40:48;;;;;;;10.85;1.73;;;;;;;2.42;100.00;99990.28;5050527;28;20522;-71
2023/12/23 03:43:14;;;;;;;10.68;1.45;;;;;;;2.43;100.00;99986.59;5045955;28;21456;-70
2023/12/23 03:45:41;;;;;;;4.55;1.13;;;;;;;2.40;100.00;99979.16;5025540;28;20099;-70
2023/12/23 03:48:06;;;;;;;6.75;1.55;;;;;;;2.39;100.00;99993.41;5053012;28;20037;-70
2023/12/23 03:50:32;;;;;;;6.18;1.38;;;;;;;2.35;100.00;99991.47;5041565;28;20040;-69
2023/12/23 03:52:58;;;;;;;9.45;1.33;;;;;;;2.33;100.00;99997.00;5038924;28;20432;-70
2023/12/23 03:55:29;;;;;;;8.80;1.33;;;;;;;2.30;100.00;99992.16;5051010;28;20029;-70
2023/12/23 03:57:55;;;;;;;5.82;1.20;;;;;;;2.28;100.00;99990.78;5039350;28;20032;-71
2023/12/23 04:00:21;;;;;;;10.75;1.92;;;;;;;2.26;100.00;99993.66;5048164;28;20124;-70
2023/12/23 04:02:47;;;;;;;9.50;1.60;;;;;;;2.25;100.00;100010.56;5067711;28;20032;-71
2023/12/23 04:05:12;;;;;;;8.80;1.63;;;;;;;2.21;100.00;100009.41;5051214;28;20040;-69
2023/12/23 04:07:38;;;;;;;11.13;1.42;;;;;;;2.18;100.00;100007.25;5045835;28;20100;-71
2023/12/23 04:10:04;;;;;;;13.10;1.80;;;;;;;2.10;100.00;99999.66;5051651;28;20086;-70
2023/12/23 04:12:31;;;;;;;11.82;1.60;;;;;;;2.05;100.00;99996.94;5035766;28;20039;-71
2023/12/23 04:14:57;;;;;;;14.98;1.50;;;;;;;2.04;100.00;100000.59;5026380;28;20040;-70
2023/12/23 04:17:22;;;;;;;7.10;1.10;;;;;;;2.03;100.00;99996.34;5046750;28;20143;-71
2023/12/23 04:19:50;;;;;;;7.15;1.30;;;;;;;1.99;100.00;100003.13;5052976;28;20046;-69
2023/12/23 04:22:16;;;;;;;5.38;1.23;;;;;;;1.95;100.00;100018.63;5054697;28;20032;-71
2023/12/23 04:24:42;;;;;;;13.30;1.58;;;;;;;1.89;100.00;100025.63;5024828;28;20043;-70
2023/12/23 04:27:08;;;;;;;10.32;2.08;;;;;;;1.82;100.00;100026.75;5050563;28;20425;-70
2023/12/23 04:29:34;;;;;;;14.80;1.63;;;;;;;1.72;100.00;100019.44;5052599;28;20036;-70
2023/12/23 04:32:00;;;;;;;9.55;1.83;;;;;;;1.67;100.00;100005.31;5048791;28;20048;-70
2023/12/23 04:34:26;;;;;;;8.60;1.60;;;;;;;1.64;100.00;99996.03;5034482;28;20033;-70
2023/12/23 04:36:52;;;;;;;10.45;1.65;;;;;;;1.62;100.00;99995.41;5035985;28;20039;-70
2023/12/23 04:39:17;;;;;;;6.75;1.60;;;;;;;1.60;100.00;99997.50;5052434;28;20032;-70
2023/12/23 04:41:47;;;;;;;12.70;1.88;;;;;;;1.60;100.00;100000.94;5052285;28;20029;-71
2023/12/23 04:44:14;;;;;;;12.68;2.08;;;;;;;1.62;100.00;100006.78;5038749;28;20485;-70
2023/12/23 04:46:42;;;;;;;12.68;1.40;;;;;;;1.66;100.00;100009.78;5050756;28;20029;-70
2023/12/23 04:49:08;;;;;;;8.27;1.90;;;;;;;1.66;100.00;100004.50;5038843;28;20071;-70
2023/12/23 04:51:35;;;;;;;6.10;1.30;;;;;;;1.65;100.00;100013.47;5074778;28;20028;-70
2023/12/23 04:54:00;;;;;;;9.50;1.45;;;;;;;1.66;100.00;100009.78;5028118;28;20622;-71
2023/12/23 04:56:26;;;;;;;8.13;1.45;;;;;;;1.66;100.00;100004.50;5054520;28;20033;-70
2023/12/23 04:58:52;;;;;;;7.10;1.20;;;;;;;1.70;100.00;100003.03;5060552;28;20071;-71
2023/12/23 05:01:17;;;;;;;10.88;2.15;;;;;;;1.78;100.00;100005.31;5072003;28;20044;-71
2023/12/23 05:03:43;;;;;;;9.98;1.83;;;;;;;1.83;100.00;99973.75;5059408;28;20032;-71
2023/12/23 05:06:09;;;;;;;5.80;1.50;;;;;;;1.84;100.00;99996.47;5056843;28;20494;-70
2023/12/23 05:08:35;;;;;;;9.57;1.00;;;;;;;1.89;100.00;99985.22;5056820;28;20032;-69
2023/12/23 05:11:02;;;;;;;18.45;2.22;;;;;;;1.96;100.00;99982.44;5042749;28;20131;-70
2023/12/23 05:13:27;;;;;;;6.13;1.20;;;;;;;2.02;100.00;99986.81;5049458;28;20448;-71
2023/12/23 05:15:53;;;;;;;7.13;1.02;;;;;;;2.08;100.00;99985.88;5044159;28;20067;-71
2023/12/23 05:18:19;;;;;;;2.78;1.45;;;;;;;2.09;100.00;99998.84;5058317;28;20119;-70
2023/12/23 05:20:45;;;;;;;4.85;0.93;;;;;;;2.09;100.00;99998.06;5045630;28;20409;-70
2023/12/23 05:23:11;;;;;;;8.25;1.55;;;;;;;2.09;100.00;100019.19;5051146;28;20063;-71
2023/12/23 05:25:37;;;;;;;8.70;1.02;;;;;;;2.05;100.00;99994.28;5059990;28;20075;-70
2023/12/23 05:28:03;;;;;;;5.40;1.10;;;;;;;2.04;100.00;100009.34;5054338;28;20127;-71
2023/12/23 05:30:29;;;;;;;4.45;1.00;;;;;;;2.02;100.00;99997.38;5022958;28;20032;-71
2023/12/23 05:32:55;;;;;;;7.90;0.85;;;;;;;1.96;100.00;100003.56;5057014;28;20058;-72
2023/12/23 05:35:20;;;;;;;4.75;1.05;;;;;;;1.92;100.00;100001.41;5059001;28;20067;-71
2023/12/23 05:37:46;;;;;;;5.03;0.70;;;;;;;1.92;100.00;99997.97;5063333;28;20127;-71
2023/12/23 05:40:11;;;;;;;4.57;0.80;;;;;;;1.88;100.00;99987.03;5061592;28;20048;-71
2023/12/23 05:42:38;;;;;;;7.25;0.90;;;;;;;1.86;100.00;99988.31;5053625;28;20044;-70
2023/12/23 05:45:03;;;;;;;8.18;1.05;;;;;;;1.84;100.00;99980.63;5057678;28;20493;-70
2023/12/23 05:47:29;;;;;;;6.97;1.20;;;;;;;1.85;100.00;99982.25;5057430;28;20060;-70
2023/12/23 05:49:55;;;;;;;5.28;0.82;;;;;;;1.89;100.00;99982.56;5063164;28;20505;-71
2023/12/23 05:52:21;;;;;;;5.50;1.50;;;;;;;1.93;100.00;99978.44;5059139;28;20036;-70
2023/12/23 05:54:47;;;;;;;6.38;1.02;;;;;;;1.97;100.00;99976.16;5057900;28;20036;-71
2023/12/23 05:57:13;;;;;;;8.73;1.60;;;;;;;1.97;100.00;99971.69;5056533;28;20563;-70
2023/12/23 05:59:39;;;;;;;6.60;1.15;;;;;;;2.02;100.00;99968.31;5055211;28;20057;-70
2023/12/23 06:02:05;;;;;;;7.57;1.00;;;;;;;2.05;100.00;99965.22;5055462;28;20056;-70
2023/12/23 06:04:30;;;;;;;7.05;1.23;;;;;;;2.07;100.00;99963.94;5060581;28;20032;-70
2023/12/23 06:06:56;;;;;;;4.22;0.93;;;;;;;2.08;100.00;99962.13;5040314;28;20032;-71
2023/12/23 06:09:22;;;;;;;6.03;1.50;;;;;;;2.06;100.00;99965.00;5055422;28;20410;-70
2023/12/23 06:11:47;;;;;;;7.68;1.25;;;;;;;2.05;100.00;99966.03;5061007;28;20185;-71
2023/12/23 06:14:13;;;;;;;10.07;1.42;;;;;;;2.07;100.00;99960.50;5049172;28;20047;-69
2023/12/23 06:16:42;;;;;;;7.43;1.17;;;;;;;2.07;100.00;99960.50;5063713;28;20037;-69
2023/12/23 06:19:08;;;;;;;10.18;1.52;;;;;;;2.05;100.00;99960.75;5074950;28;20506;-69
2023/12/23 06:21:34;;;;;;;5.32;1.00;;;;;;;2.08;100.00;99951.53;5073116;28;20039;-71
2023/12/23 06:24:00;;;;;;;5.53;1.42;;;;;;;2.08;100.00;99955.00;5057826;28;20036;-69
2023/12/23 06:26:26;;;;;;;6.40;1.00;;;;;;;2.10;100.00;99954.75;5056666;28;21002;-69
2023/12/23 06:28:51;;;;;;;6.20;0.90;;;;;;;2.08;100.00;99960.28;5056450;28;20068;-70
2023/12/23 06:31:17;;;;;;;9.75;1.63;;;;;;;2.06;100.00;99951.78;5059242;28;20050;-70
2023/12/23 06:33:43;;;;;;;7.80;1.00;;;;;;;2.06;100.00;99945.69;5053921;28;20478;-70
2023/12/23 06:36:09;;;;;;;4.90;1.13;;;;;;;2.04;100.00;99938.03;5052086;28;20040;-69
2023/12/23 06:38:35;;;;;;;4.45;1.23;;;;;;;2.05;100.00;99949.38;5040999;28;20037;-71
2023/12/23 06:41:03;;;;;;;2.15;0.68;;;;;;;2.05;100.00;99941.47;5059215;28;20107;-70
2023/12/23 06:43:29;;;;;;;10.23;1.30;;;;;;;2.04;100.00;99943.31;5060895;28;20037;-70
2023/12/23 06:45:55;;;;;;;5.03;0.80;;;;;;;2.02;100.00;99936.63;5055030;28;20060;-70
2023/12/23 06:48:21;;;;;;;6.03;1.08;;;;;;;1.98;100.00;99938.94;5070018;28;20032;-70
2023/12/23 06:50:47;;;;;;;5.30;0.70;;;;;;;1.98;100.00;99946.06;5034701;28;20090;-69
2023/12/23 06:53:12;;;;;;;5.50;1.20;;;;;;;1.96;100.00;99941.00;5058544;28;20037;-69
2023/12/23 06:55:38;;;;;;;3.85;0.95;;;;;;;1.95;100.00;99941.22;5059485;28;20040;-69
2023/12/23 06:58:04;;;;;;;2.10;0.73;;;;;;;1.91;100.00;99933.78;5058193;28;20085;-70
2023/12/23 07:00:29;;;;;;;4.32;0.70;;;;;;;1.91;100.00;99933.00;5058983;28;20032;-71
2023/12/23 07:02:55;;;;;;;3.55;0.75;;;;;;;1.90;100.00;99934.81;5038592;28;20033;-70
2023/12/23 07:05:21;;;;;;;6.63;1.23;;;;;;;1.91;100.00;99931.16;5059940;28;20036;-69
2023/12/23 07:07:47;;;;;;;5.53;0.93;;;;;;;1.91;100.00;99941.72;5057365;28;20036;-69
2023/12/23 07:10:14;;;;;;;6.80;1.02;;;;;;;1.90;100.00;99950.66;5055204;28;20095;-71
2023/12/23 07:12:40;;;;;;;5.18;1.08;;;;;;;1.91;100.00;99952.28;5053617;28;20028;-70
2023/12/23 07:15:07;;;;;;;6.43;1.13;;;;;;;1.89;100.00;99956.97;5054966;28;20179;-69
2023/12/23 07:17:33;;;;;;;5.60;0.90;;;;;;;1.88;100.00;99954.56;5020408;28;20028;-71
2023/12/23 07:20:00;;;;;;;6.15;1.00;;;;;;;1.86;100.00;99968.00;5054901;28;20062;-70
2023/12/23 07:22:28;;;;;;;4.32;1.05;;;;;;;1.78;100.00;99960.44;5049729;28;20028;-70
2023/12/23 07:24:54;;;;;;;4.00;1.20;;;;;;;1.77;100.00;99953.56;5028111;28;20036;-71
2023/12/23 07:27:20;;;;;;;2.65;1.15;;;;;;;1.73;100.00;99952.41;5054983;28;20036;-70
2023/12/23 07:29:46;;;;;;;4.05;0.70;;;;;;;1.71;100.00;99962.41;5053207;28;20041;-71
2023/12/23 07:32:12;;;;;;;2.72;0.82;;;;;;;1.64;100.00;99954.59;5051549;28;20550;-72
2023/12/23 07:34:38;;;;;;;2.85;0.60;;;;;;;1.64;100.00;99951.16;5053840;28;20062;-70
2023/12/23 07:37:03;;;;;;;2.42;0.73;;;;;;;1.62;100.00;99967.19;5060988;28;20081;-69
2023/12/23 07:39:29;;;;;;;4.05;1.10;;;;;;;1.60;100.00;99963.97;5060793;28;20052;-69
2023/12/23 07:41:57;;;;;;;3.17;0.50;;;;;;;1.59;100.00;99959.75;5057689;28;20427;-69
2023/12/23 07:44:24;;;;;;;1.25;0.70;;;;;;;1.58;100.00;99960.78;5051009;28;20336;-69
2023/12/23 07:46:50;;;;;;;3.03;0.60;;;;;;;1.55;100.00;99960.41;5051660;28;20043;-69
2023/12/23 07:49:15;;;;;;;2.13;1.00;;;;;;;1.55;100.00;99966.50;5048493;28;20041;-70
2023/12/23 07:51:41;;;;;;;4.25;1.00;;;;;;;1.54;100.00;99969.38;5028215;28;20036;-70
2023/12/23 07:54:06;;;;;;;2.83;0.70;;;;;;;1.45;100.00;99955.72;5056089;28;20111;-69
2023/12/23 07:56:32;;;;;;;2.75;2.15;;;;;;;1.41;100.00;99956.41;5053575;28;20086;-69
2023/12/23 07:58:58;;;;;;;2.05;0.70;;;;;;;1.37;100.00;99963.97;5055853;28;20035;-70
2023/12/23 08:01:24;;;;;;;2.63;1.00;;;;;;;1.33;100.00;99968.09;5057875;28;20485;-70
2023/12/23 08:03:50;;;;;;;3.20;1.08;;;;;;;1.28;100.00;99955.56;5053489;28;20041;-69
2023/12/23 08:06:16;;;;;;;3.20;1.20;;;;;;;1.21;100.00;99960.16;5055686;28;20043;-69
2023/12/23 08:08:42;;;;;;;2.97;0.77;;;;;;;1.19;100.00;99972.78;5051247;28;20783;-69
2023/12/23 08:11:08;;;;;;;3.95;0.80;;;;;;;1.14;100.00;99964.72;5058468;28;20033;-70
2023/12/23 08:13:34;;;;;;;4.88;1.00;;;;;;;1.13;100.00;99971.03;5055916;28;20038;-69
2023/12/23 08:15:59;;;;;;;3.95;0.70;;;;;;;1.13;100.00;99973.69;5074871;28;20040;-69
2023/12/23 08:18:25;;;;;;;3.00;1.23;;;;;;;1.08;100.00;99971.75;5054170;28;20037;-69
2023/12/23 08:20:51;;;;;;;2.95;0.80;;;;;;;1.05;100.00;99966.91;5039767;28;20040;-69
2023/12/23 08:23:16;;;;;;;3.70;0.90;;;;;;;1.00;100.00;99956.22;5055380;28;20044;-69
2023/12/23 08:25:42;;;;;;;3.03;1.02;;;;;;;0.97;100.00;99961.16;5056828;28;20406;-69
2023/12/23 08:28:07;;;;;;;2.92;0.90;;;;;;;0.92;100.00;99961.81;5064151;28;20033;-69
2023/12/23 08:30:33;;;;;;;3.78;1.00;;;;;;;0.89;100.00;99962.28;5054969;28;20040;-70
2023/12/23 08:32:59;;;;;;;3.15;0.77;;;;;;;0.85;100.00;99960.31;5060349;28;20035;-70
2023/12/23 08:35:25;;;;;;;3.70;1.42;;;;;;;0.83;100.00;99968.44;5061946;28;20505;-68
2023/12/23 08:37:51;;;;;;;2.72;1.00;;;;;;;0.82;100.00;99957.09;5076267;28;20538;-70
2023/12/23 08:40:17;;;;;;;;;;;;;;;0.76;100.00;99952.72;5057626;28;20040;-70
2023/12/23 08:42:44;;;;;;;3.63;0.82;;;;;;;0.75;100.00;99972.22;5062094;28;19916;-71
2023/12/23 08:45:10;;;;;;;3.45;1.13;;;;;;;0.74;100.00;99953.97;5061516;28;20035;-69
2023/12/23 08:47:35;;;;;;;3.33;1.13;;;;;;;0.73;100.00;99958.44;5058650;28;20041;-69
2023/12/23 08:50:01;;;;;;;3.35;1.08;;;;;;;0.75;100.00;99960.88;5064177;28;20143;-69
2023/12/23 08:52:27;;;;;;;3.80;1.35;;;;;;;0.73;100.00;99966.34;5059627;28;20760;-68
2023/12/23 08:54:53;;;;;;;2.15;0.88;;;;;;;0.72;100.00;99956.03;5061077;28;20060;-69
2023/12/23 08:57:18;;;;;;;3.38;1.30;;;;;;;0.70;100.00;99958.91;5059254;28;20036;-70
2023/12/23 08:59:44;;;;;;;3.42;0.82;;;;;;;0.70;100.00;99968.63;5064093;28;20115;-70
2023/12/23 09:02:10;;;;;;;4.65;1.33;;;;;;;0.67;100.00;99964.59;5063165;28;20024;-69
2023/12/23 09:04:36;;;;;;;3.35;1.15;;;;;;;0.64;100.00;99959.78;5061214;28;20497;-69
2023/12/23 09:07:02;;;;;;;4.38;1.20;;;;;;;0.63;100.00;99973.19;5056039;28;20111;-69
2023/12/23 09:09:27;;;;;;;4.30;1.50;;;;;;;0.61;100.00;99954.97;5055404;28;20127;-69
2023/12/23 09:11:53;;;;;;;4.05;1.30;;;;;;;0.60;100.00;99968.34;5059644;28;20393;-69
2023/12/23 09:14:19;;;;;;;7.38;1.88;;;;;;;0.60;100.00;99963.88;5061566;28;20115;-68
2023/12/23 09:16:44;;;;;;;5.47;1.42;;;;;;;0.60;100.00;99969.16;5056210;28;20040;-70
2023/12/23 09:19:10;;;;;;;4.43;1.83;;;;;;;0.62;100.00;99972.38;5058728;28;20507;-69
2023/12/23 09:21:36;;;;;;;6.82;2.20;;;;;;;0.60;100.00;99974.41;5061893;28;20160;-68
2023/12/23 09:24:03;;;;;;;4.85;1.85;;;;;;;0.64;100.00;99972.16;5043442;28;20328;-69
2023/12/23 09:26:28;;;;;;;8.90;3.58;;;;;;;0.66;100.00;99963.00;5053445;28;20059;-68
2023/12/23 09:28:54;;;;;;;6.13;1.95;;;;;;;0.65;100.00;99971.94;5063106;28;20115;-69
2023/12/23 09:31:19;;;;;;;4.93;1.98;;;;;;;0.65;100.00;99964.03;5059677;28;20103;-69
2023/12/23 09:33:45;;;;;;;4.72;1.88;;;;;;;0.67;100.00;99975.13;5056197;28;20045;-70
2023/12/23 09:36:11;;;;;;;4.90;1.80;;;;;;;0.67;100.00;99977.78;5052258;28;20039;-68
2023/12/23 09:38:37;;;;;;;4.70;1.90;;;;;;;0.69;100.00;99972.31;5040822;28;20043;-69
2023/12/23 09:41:03;;;;;;;3.72;2.08;;;;;;;0.70;100.00;99972.06;5061683;28;20041;-68
2023/12/23 09:43:29;;;;;;;;;;;;;;;0.71;100.00;99973.66;5036045;28;20052;-68
2023/12/23 09:45:56;;;;;;;4.50;1.95;;;;;;;0.73;100.00;99979.53;5059714;28;19912;-69
2023/12/23 09:48:23;;;;;;;4.00;2.05;;;;;;;0.75;100.00;99977.47;5066252;28;20052;-70
2023/12/23 09:50:49;;;;;;;;;;;;;;;0.77;100.00;99988.59;5064286;28;20044;-69
2023/12/23 09:53:19;;;;;;;7.82;2.35;;;;;;;0.80;100.00;99992.59;5060470;28;19916;-68
2023/12/23 09:55:45;;;;;;;8.20;2.20;;;;;;;0.81;100.00;99981.88;5060622;28;20032;-69
2023/12/23 09:58:13;;;;;;;4.97;2.53;;;;;;;0.86;100.00;99978.53;5058208;28;20045;-68
2023/12/23 10:00:39;;;;;;;5.25;2.17;;;;;;;0.90;100.00;99969.16;5054971;28;20269;-69
2023/12/23 10:03:05;;;;;;;4.10;1.92;;;;;;;0.96;100.00;99967.47;5054256;28;20028;-69
2023/12/23 10:05:30;;;;;;;5.35;2.10;;;;;;;1.01;100.00;99964.94;5056686;28;20090;-70
2023/12/23 10:07:59;;;;;;;5.80;1.90;;;;;;;1.05;100.00;99971.38;5052458;28;20416;-70
2023/12/23 10:10:25;;;;;;;3.85;1.98;;;;;;;1.11;100.00;99965.19;5058598;28;20230;-69
2023/12/23 10:12:52;;;;;;;5.57;1.92;;;;;;;1.16;100.00;99973.25;5055160;28;20041;-69
2023/12/23 10:15:18;;;;;;;4.57;1.88;;;;;;;1.24;100.00;99970.28;5048675;28;20099;-69
2023/12/23 10:17:43;;;;;;;2.95;1.70;;;;;;;1.28;100.00;99973.25;5040819;28;20094;-70
2023/12/23 10:20:15;;;;;;;3.90;1.30;;;;;;;1.36;100.00;99972.94;5039548;28;20036;-69
2023/12/23 10:22:44;;;;;;;3.03;1.27;;;;;;;1.43;100.00;99967.56;5066883;28;20094;-70
2023/12/23 10:25:10;;;;;;;6.63;2.67;;;;;;;1.51;100.00;99970.66;5051321;28;20057;-69
2023/12/23 10:27:40;;;;;;;8.40;3.65;;;;;;;1.56;100.00;99972.63;5056987;28;20041;-69
2023/12/23 10:30:09;;;;;;;7.28;3.42;;;;;;;1.60;100.00;99974.53;5051428;28;20033;-71
2023/12/23 10:32:37;;;;;;;6.90;3.70;;;;;;;1.64;100.00;99975.72;5039249;28;20123;-70
2023/12/23 10:35:05;;;;;;;7.38;3.47;;;;;;;1.67;100.00;99969.16;5056922;28;20098;-69
2023/12/23 10:37:32;;;;;;;7.20;3.80;;;;;;;1.71;100.00;99975.59;5053859;28;20040;-69
2023/12/23 10:40:07;;;;;;;7.10;3.53;;;;;;;1.75;100.00;99976.72;5060988;28;20039;-70
2023/12/23 10:42:33;;;;;;;7.18;3.85;;;;;;;1.79;100.00;99967.31;5066595;28;20147;-69
2023/12/23 10:44:59;;;;;;;8.68;3.42;;;;;;;1.82;100.00;99974.75;5056904;28;20143;-70
2023/12/23 10:47:28;;;;;;;5.63;3.10;;;;;;;1.85;100.00;99970.88;5054814;28;20044;-69
2023/12/23 10:49:56;;;;;;;5.13;2.88;;;;;;;1.89;100.00;99978.09;5058110;28;20036;-70
2023/12/23 10:52:23;;;;;;;8.80;3.00;;;;;;;1.92;100.00;99967.06;5055732;28;20033;-69
2023/12/23 10:54:50;;;;;;;7.07;3.00;;;;;;;1.97;100.00;99961.13;5061194;28;20497;-70
2023/12/23 10:57:16;;;;;;;5.10;3.03;;;;;;;2.00;100.00;99959.84;5054574;28;20041;-70
2023/12/23 10:59:42;;;;;;;5.53;2.83;;;;;;;2.01;100.00;99966.72;5052168;28;20037;-69
2023/12/23 11:02:15;;;;;;;9.82;3.45;;;;;;;2.02;100.00;99970.97;5054538;28;20055;-69
2023/12/23 11:04:44;;;;;;;6.85;3.35;;;;;;;2.05;100.00;99973.16;5071037;28;20036;-70
2023/12/23 11:07:13;;;;;;;6.70;2.85;;;;;;;2.07;100.00;99973.72;5054020;28;20722;-69
2023/12/23 11:09:41;;;;;;;6.30;3.45;;;;;;;2.06;100.00;99972.91;5052383;28;20050;-69
2023/12/23 11:12:08;;;;;;;6.03;3.47;;;;;;;2.01;100.00;99972.00;5055676;28;20513;-70
2023/12/23 11:14:35;;;;;;;9.95;3.55;;;;;;;2.01;100.00;99972.00;5031578;28;20044;-69
2023/12/23 11:17:00;;;;;;;10.27;3.25;;;;;;;2.02;100.00;99982.31;5057138;28;20044;-69
2023/12/23 11:19:26;;;;;;;5.80;2.97;;;;;;;2.03;100.00;99983.13;5030025;28;20048;-70
2023/12/23 11:22:24;;;;;;;9.57;3.08;;;;;;;2.03;100.00;99985.78;5052355;28;20041;-69
2023/12/23 11:24:50;;;;;;;5.10;3.05;;;;;;;2.04;100.00;99979.47;5053789;28;20037;-70
2023/12/23 11:27:32;;;;;;;;;;;;;;;2.04;100.00;99982.13;5065597;28;20510;-69